»·PEaware :: SWA717 KLAS-KLGB

SWA717 :: KLAS-KLGB

FLIGHT INFORMATION

Flight Status: Arrived
Operator:
Southwest Airlines
More flights by this operator :: More flights under this callsign
Pilot: Ty S. (2873)
Aircraft: BOEING 737-200
(B732)
More flights by this aircraft type
Origin: KLAS McCarran Intl
United States
Destination: KLGB Long Beach
United States
More flights between these airports :: More routes between these airports
Route: BOACH8 WHIGG FEYLA ROOBY1
File this flight plan on PilotEdge
Remarks:
Altitude:
(Current/Filed)
30,000ft
Speed:
(Current/Filed)
440kts
Departed: 31-Dec-17 07:54 AM
Arrived: 31-Dec-17 08:43 AM
Distance/Time
Traveled:
200nm/0:49
Distance/Time
To Go:
Arrived

Flight Plot

Page will automatically refresh every two minutes.

Flight plan parsing failed; only flown route is shown


Map Options




Map Legend


Flown Route
Filed Route
Departure Airport
Arrival Airport
Navaid (VOR, NDB)
Fix

Horizontal Profiles

Position Reports

Time Latitude Longitude Heading Altitude Ground
Speed
31-Dec-17 07:41 36.079926 -115.147020 61 2150ft 0kts
31-Dec-17 07:42 36.079926 -115.147020 61 2150ft 0kts
31-Dec-17 07:43 36.079926 -115.147020 61 2150ft 0kts
31-Dec-17 07:44 36.079926 -115.147020 61 2150ft 0kts
31-Dec-17 07:45 36.079926 -115.147020 61 2150ft 0kts
31-Dec-17 07:46 36.079926 -115.147020 61 2150ft 0kts
31-Dec-17 07:47 36.079926 -115.147020 61 2150ft 0kts
31-Dec-17 07:48 36.079926 -115.147020 61 2150ft 0kts
31-Dec-17 07:49 36.079927 -115.147016 61 2150ft 0kts
31-Dec-17 07:50 36.079769 -115.147653 111 2150ft 2kts
31-Dec-17 07:51 36.079949 -115.147881 155 2150ft 0kts
31-Dec-17 07:52 36.079949 -115.147881 155 2150ft 0kts
31-Dec-17 07:53 36.079359 -115.147551 155 2150ft 12kts
31-Dec-17 07:54 36.078007 -115.150509 273 2150ft 17kts
31-Dec-17 07:55 36.080969 -115.154595 335 2150ft 20kts
31-Dec-17 07:56 36.086042 -115.157520 335 2150ft 19kts
31-Dec-17 07:57 36.090744 -115.155804 22 2150ft 17kts
31-Dec-17 07:58 36.094933 -115.153408 23 2150ft 16kts
31-Dec-17 07:59 36.098227 -115.153477 247 2150ft 14kts
31-Dec-17 08:00 36.070673 -115.169315 205 2824ft 187kts
31-Dec-17 08:01 36.018383 -115.203428 231 5207ft 266kts
31-Dec-17 08:02 35.973231 -115.286242 216 7001ft 333kts
31-Dec-17 08:03 35.895281 -115.309173 187 8823ft 276kts
31-Dec-17 08:04 35.817088 -115.309760 177 11368ft 298kts
31-Dec-17 08:05 35.725709 -115.300011 176 12895ft 344kts
31-Dec-17 08:06 35.655752 -115.333988 232 14780ft 342kts
31-Dec-17 08:07 35.597263 -115.444652 215 17108ft 353kts
31-Dec-17 08:08 35.530492 -115.503541 218 18747ft 359kts
31-Dec-17 08:09 35.448070 -115.604810 229 20761ft 366kts
31-Dec-17 08:10 35.389399 -115.683483 229 22054ft 372kts
31-Dec-17 08:11 35.331299 -115.761476 229 23203ft 377kts
31-Dec-17 08:12 35.260159 -115.856776 229 24427ft 384kts
31-Dec-17 08:13 35.191684 -115.945708 228 25435ft 389kts
31-Dec-17 08:14 35.103605 -116.056817 228 26279ft 394kts
31-Dec-17 08:15 35.040438 -116.136233 228 26907ft 397kts
31-Dec-17 08:16 34.963531 -116.232645 228 27561ft 400kts
31-Dec-17 08:17 34.889302 -116.325466 229 28141ft 403kts
31-Dec-17 08:18 34.828120 -116.403364 230 28576ft 405kts
31-Dec-17 08:19 34.757272 -116.493525 229 28987ft 408kts
31-Dec-17 08:20 34.679808 -116.586780 223 27497ft 386kts
31-Dec-17 08:21 34.600814 -116.665181 222 25276ft 377kts
31-Dec-17 08:22 34.532035 -116.732475 222 23420ft 369kts
31-Dec-17 08:23 34.457611 -116.813678 226 21307ft 359kts
31-Dec-17 08:24 34.386857 -116.895850 226 19234ft 351kts
31-Dec-17 08:25 34.319429 -116.973784 226 17266ft 344kts
31-Dec-17 08:26 34.250177 -117.044478 214 15208ft 337kts
31-Dec-17 08:27 34.173852 -117.100379 209 12562ft 330kts
31-Dec-17 08:28 34.099552 -117.144633 207 9960ft 304kts
31-Dec-17 08:29 34.032914 -117.183774 207 10008ft 273kts
31-Dec-17 08:30 33.961686 -117.225070 206 9977ft 287kts
31-Dec-17 08:31 33.892062 -117.263143 206 9977ft 289kts
31-Dec-17 08:32 33.821499 -117.302479 208 9971ft 285kts
31-Dec-17 08:33 33.750535 -117.344672 207 8478ft 285kts
31-Dec-17 08:34 33.680608 -117.386183 207 7161ft 279kts
31-Dec-17 08:35 33.613028 -117.426208 207 5980ft 271kts
31-Dec-17 08:36 33.579363 -117.491673 265 5537ft 243kts
31-Dec-17 08:37 33.574821 -117.569994 274 5490ft 245kts
31-Dec-17 08:38 33.593390 -117.642075 290 4918ft 216kts
31-Dec-17 08:39 33.610396 -117.701684 290 4111ft 216kts
31-Dec-17 08:40 33.629297 -117.767872 290 3950ft 217kts
31-Dec-17 08:41 33.647474 -117.831637 290 3946ft 206kts
31-Dec-17 08:42 33.665247 -117.894029 290 3961ft 209kts
31-Dec-17 08:43 33.673278 -117.959217 271 3414ft 185kts
31-Dec-17 08:44 33.697895 -118.006704 315 3048ft 167kts
31-Dec-17 08:45 33.726689 -118.041313 315 2422ft 137kts
31-Dec-17 08:46 33.753785 -118.073985 315 1689ft 139kts
31-Dec-17 08:47 33.780632 -118.106417 314 943ft 136kts
31-Dec-17 08:48 33.807096 -118.138411 314 216ft 135kts
31-Dec-17 08:49 33.824694 -118.159023 52 69ft 16kts
31-Dec-17 08:50 33.824759 -118.156240 100 69ft 10kts
31-Dec-17 08:51 33.822712 -118.152935 89 69ft 23kts
31-Dec-17 08:52 33.821623 -118.147814 90 69ft 18kts
31-Dec-17 08:53 33.819015 -118.146217 134 69ft 0kts
31-Dec-17 08:54 33.819015 -118.146217 134 69ft 0kts
31-Dec-17 08:55 33.819015 -118.146217 134 69ft 0kts
31-Dec-17 08:56 33.819015 -118.146217 134 69ft 0kts
31-Dec-17 08:57 33.819015 -118.146217 134 69ft 0kts
31-Dec-17 08:58 33.819015 -118.146217 134 69ft 0kts
31-Dec-17 08:59 33.819015 -118.146217 134 69ft 0kts

Navigation Log

Ident Type
Flight plan parsing failed, navigation log unavailable